createdAt,value
2022-08-26T00:00:04.553Z,21.05
2022-08-26T00:01:04.560Z,21.06
2022-08-26T00:02:04.598Z,21.08
2022-08-26T00:03:04.572Z,21.06
2022-08-26T00:04:04.633Z,20.96
2022-08-26T00:05:04.508Z,20.87
2022-08-26T00:06:04.490Z,20.68
2022-08-26T00:07:05.344Z,20.51
2022-08-26T00:08:04.478Z,20.35
2022-08-26T00:09:04.492Z,20.19
2022-08-26T00:10:04.466Z,20.05
2022-08-26T00:11:04.411Z,19.92
2022-08-26T00:12:04.465Z,19.70
2022-08-26T00:13:04.500Z,19.49
2022-08-26T00:14:04.385Z,19.38
2022-08-26T00:15:04.747Z,19.34
2022-08-26T00:16:04.383Z,19.21
2022-08-26T00:17:04.396Z,19.12
2022-08-26T00:18:04.358Z,19.06
2022-08-26T00:19:05.349Z,18.94
2022-08-26T00:20:04.357Z,18.87
2022-08-26T00:21:06.092Z,18.66
2022-08-26T00:22:04.385Z,18.66
2022-08-26T00:23:04.345Z,18.64
2022-08-26T00:24:04.275Z,18.53
2022-08-26T00:25:04.305Z,18.50
2022-08-26T00:26:04.274Z,18.41
2022-08-26T00:27:04.237Z,18.29
2022-08-26T00:28:04.232Z,18.31
2022-08-26T00:29:04.273Z,18.25
2022-08-26T00:30:04.276Z,18.14
2022-08-26T00:31:04.221Z,18.14
2022-08-26T00:32:04.229Z,18.04
2022-08-26T00:33:04.232Z,18.02
2022-08-26T00:34:04.157Z,18.02
2022-08-26T00:35:04.185Z,17.89
2022-08-26T00:36:04.149Z,17.95
2022-08-26T00:37:04.140Z,17.87
2022-08-26T00:38:04.122Z,17.71
2022-08-26T00:39:04.111Z,17.76
2022-08-26T00:40:05.239Z,17.62
2022-08-26T00:41:04.160Z,17.60
2022-08-26T00:42:04.084Z,17.53
2022-08-26T00:43:07.021Z,17.39
2022-08-26T00:44:05.067Z,17.38
2022-08-26T00:45:04.076Z,17.25
2022-08-26T00:46:05.093Z,17.33
2022-08-26T00:47:04.079Z,17.30
2022-08-26T00:48:04.104Z,17.32
2022-08-26T00:49:04.010Z,17.22
2022-08-26T00:50:05.028Z,17.15
2022-08-26T00:51:04.023Z,17.10
2022-08-26T00:52:03.968Z,17.06
2022-08-26T00:53:04.094Z,17.02
2022-08-26T00:54:03.967Z,16.88
2022-08-26T00:55:03.991Z,16.87
2022-08-26T00:56:03.958Z,16.88
2022-08-26T00:57:04.008Z,16.88
2022-08-26T00:58:03.932Z,16.88
2022-08-26T00:59:04.223Z,16.82
2022-08-26T01:00:03.925Z,16.82
2022-08-26T01:01:04.078Z,16.84
2022-08-26T01:02:04.032Z,16.77
2022-08-26T01:03:05.257Z,16.77
2022-08-26T01:04:03.866Z,16.70
2022-08-26T01:05:03.964Z,16.77
2022-08-26T01:06:03.834Z,16.80
2022-08-26T01:07:03.818Z,16.80
2022-08-26T01:08:03.811Z,16.72
2022-08-26T01:09:03.966Z,16.70
2022-08-26T01:10:03.871Z,16.82
2022-08-26T01:11:03.764Z,16.73
2022-08-26T01:12:03.773Z,16.72
2022-08-26T01:13:03.786Z,16.77
2022-08-26T01:14:03.734Z,16.75
2022-08-26T01:15:03.796Z,16.75
2022-08-26T01:16:03.770Z,16.78
2022-08-26T01:17:05.088Z,16.59
2022-08-26T01:18:03.684Z,16.62
2022-08-26T01:19:03.702Z,16.73
2022-08-26T01:20:03.707Z,16.60
2022-08-26T01:21:03.639Z,16.69
2022-08-26T01:22:03.637Z,16.70
2022-08-26T01:23:03.768Z,16.59
2022-08-26T01:24:03.645Z,16.72
2022-08-26T01:25:03.875Z,16.60
2022-08-26T01:26:03.690Z,16.72
2022-08-26T01:27:03.589Z,16.63
2022-08-26T01:28:03.577Z,16.60
2022-08-26T01:29:03.570Z,16.62
2022-08-26T01:30:03.570Z,16.65
2022-08-26T01:31:03.541Z,16.62
2022-08-26T01:32:03.547Z,16.72
2022-08-26T01:33:03.708Z,16.78
2022-08-26T01:34:03.510Z,16.84
2022-08-26T01:35:03.534Z,16.88
2022-08-26T01:36:03.508Z,16.87
2022-08-26T01:37:03.478Z,16.88
2022-08-26T01:38:03.478Z,16.91
2022-08-26T01:39:03.468Z,16.90
2022-08-26T01:40:03.539Z,16.92
2022-08-26T01:41:03.435Z,16.92
2022-08-26T01:42:04.414Z,16.85
2022-08-26T01:43:04.508Z,16.95
2022-08-26T01:44:03.388Z,16.88
2022-08-26T01:45:03.399Z,16.96
2022-08-26T01:46:03.408Z,16.98
2022-08-26T01:47:03.385Z,17.24
2022-08-26T01:48:03.442Z,17.28
2022-08-26T01:49:03.345Z,17.30
2022-08-26T01:50:03.399Z,17.25
2022-08-26T01:51:03.318Z,17.27
2022-08-26T01:52:03.326Z,17.32
2022-08-26T01:53:03.281Z,17.32
2022-08-26T01:54:03.304Z,17.15
2022-08-26T01:55:03.325Z,17.09
2022-08-26T01:56:03.334Z,17.05
2022-08-26T01:57:03.285Z,16.88
2022-08-26T01:58:03.232Z,16.87
2022-08-26T01:59:03.314Z,16.87
2022-08-26T02:00:03.223Z,16.75
2022-08-26T02:01:03.261Z,16.62
2022-08-26T02:02:03.190Z,16.60
2022-08-26T02:03:03.183Z,16.52
2022-08-26T02:04:03.231Z,16.52
2022-08-26T02:05:03.259Z,16.51
2022-08-26T02:06:03.189Z,16.51
2022-08-26T02:07:03.168Z,16.62
2022-08-26T02:08:03.128Z,16.82
2022-08-26T02:09:03.119Z,17.02
2022-08-26T02:10:03.141Z,17.35
2022-08-26T02:11:03.119Z,17.40
2022-08-26T02:12:03.111Z,17.49
2022-08-26T02:13:03.073Z,17.58
2022-08-26T02:14:03.142Z,17.83
2022-08-26T02:15:03.095Z,17.87
2022-08-26T02:16:03.064Z,18.01
2022-08-26T02:17:03.029Z,18.01
2022-08-26T02:18:03.029Z,18.09
2022-08-26T02:19:03.021Z,18.17
2022-08-26T02:20:03.019Z,18.36
2022-08-26T02:21:03.005Z,18.41
2022-08-26T02:22:02.990Z,18.50
2022-08-26T02:23:02.994Z,18.56
2022-08-26T02:24:03.003Z,18.69
2022-08-26T02:25:02.972Z,18.89
2022-08-26T02:26:02.965Z,19.12
2022-08-26T02:27:02.949Z,19.12
2022-08-26T02:28:03.002Z,19.15
2022-08-26T02:29:02.941Z,19.07
2022-08-26T02:30:02.933Z,19.13
2022-08-26T02:31:02.959Z,19.05
2022-08-26T02:32:02.872Z,19.10
2022-08-26T02:33:02.877Z,19.20
2022-08-26T02:34:02.887Z,19.21
2022-08-26T02:35:02.870Z,19.24
2022-08-26T02:36:02.820Z,19.27
2022-08-26T02:37:02.837Z,19.27
2022-08-26T02:38:02.808Z,19.15
2022-08-26T02:39:03.829Z,19.23
2022-08-26T02:40:02.812Z,19.38
2022-08-26T02:41:02.767Z,19.46
2022-08-26T02:42:02.764Z,19.47
2022-08-26T02:43:02.788Z,19.43
2022-08-26T02:44:02.727Z,19.42
2022-08-26T02:45:02.801Z,19.30
2022-08-26T02:46:02.773Z,19.17
2022-08-26T02:47:02.826Z,19.07
2022-08-26T02:48:02.745Z,18.89
2022-08-26T02:49:02.726Z,18.82
2022-08-26T02:50:02.793Z,18.57
2022-08-26T02:51:02.694Z,18.51
2022-08-26T02:52:02.656Z,18.47
2022-08-26T02:53:02.646Z,18.44
2022-08-26T02:54:02.660Z,18.38
2022-08-26T02:55:02.671Z,18.19
2022-08-26T02:56:02.611Z,18.11
2022-08-26T02:57:02.645Z,17.99
2022-08-26T02:58:02.592Z,17.96
2022-08-26T02:59:02.592Z,17.84
2022-08-26T03:00:02.671Z,17.87
2022-08-26T03:01:02.713Z,17.66
2022-08-26T03:02:02.641Z,17.68
2022-08-26T03:03:02.561Z,17.71
2022-08-26T03:04:02.537Z,17.68
2022-08-26T03:05:02.586Z,17.76
2022-08-26T03:06:02.507Z,17.66
2022-08-26T03:07:02.530Z,17.76
2022-08-26T03:08:02.525Z,17.84
2022-08-26T03:09:02.504Z,17.96
2022-08-26T03:10:08.217Z,18.07
2022-08-26T03:11:03.446Z,18.14
2022-08-26T03:12:02.469Z,18.17
2022-08-26T03:13:05.169Z,18.34
2022-08-26T03:14:03.573Z,18.35
2022-08-26T03:15:02.466Z,18.39
2022-08-26T03:16:03.490Z,18.49
2022-08-26T03:17:02.449Z,18.64
2022-08-26T03:18:02.433Z,18.60
2022-08-26T03:19:02.383Z,18.62
2022-08-26T03:20:02.346Z,18.72
2022-08-26T03:21:02.342Z,18.69
2022-08-26T03:22:02.392Z,18.69
2022-08-26T03:23:02.353Z,18.68
2022-08-26T03:24:02.404Z,18.65
2022-08-26T03:25:02.303Z,18.79
2022-08-26T03:26:02.314Z,18.83
2022-08-26T03:27:05.941Z,18.83
2022-08-26T03:28:03.352Z,18.89
2022-08-26T03:29:02.258Z,18.87
2022-08-26T03:30:02.285Z,18.87
2022-08-26T03:31:02.274Z,18.86
2022-08-26T03:32:02.298Z,18.79
2022-08-26T03:33:02.315Z,18.74
2022-08-26T03:34:02.178Z,18.74
2022-08-26T03:35:02.221Z,18.60
2022-08-26T03:36:02.395Z,18.53
2022-08-26T03:37:02.235Z,18.56
2022-08-26T03:38:02.200Z,18.53
2022-08-26T03:39:02.169Z,18.54
2022-08-26T03:40:02.169Z,18.53
2022-08-26T03:41:02.177Z,18.51
2022-08-26T03:42:02.179Z,18.56
2022-08-26T03:43:02.203Z,18.57
2022-08-26T03:44:02.076Z,18.46
2022-08-26T03:45:02.060Z,18.38
2022-08-26T03:46:02.225Z,18.34
2022-08-26T03:47:02.055Z,18.28
2022-08-26T03:48:02.034Z,18.39
2022-08-26T03:49:02.037Z,18.47
2022-08-26T03:50:02.107Z,18.56
2022-08-26T03:51:02.026Z,18.72
2022-08-26T03:52:02.000Z,18.69
2022-08-26T03:53:02.035Z,18.75
2022-08-26T03:54:02.008Z,18.71
2022-08-26T03:55:02.013Z,18.69
2022-08-26T03:56:01.944Z,18.72
2022-08-26T03:57:01.946Z,18.68
2022-08-26T03:58:01.954Z,18.72
2022-08-26T03:59:02.030Z,18.79
2022-08-26T04:00:01.962Z,18.69
2022-08-26T04:01:01.956Z,18.76
2022-08-26T04:02:01.977Z,18.72
2022-08-26T04:03:01.985Z,18.82
2022-08-26T04:04:02.026Z,18.69
2022-08-26T04:05:01.880Z,18.71
2022-08-26T04:06:01.967Z,18.59
2022-08-26T04:07:01.851Z,18.56
2022-08-26T04:08:01.930Z,18.47
2022-08-26T04:09:01.836Z,18.44
2022-08-26T04:10:01.859Z,18.19
2022-08-26T04:11:01.866Z,18.13
2022-08-26T04:12:01.783Z,18.04
2022-08-26T04:13:01.823Z,18.02
2022-08-26T04:14:01.792Z,17.86
2022-08-26T04:15:01.824Z,17.63
2022-08-26T04:16:01.805Z,17.46
2022-08-26T04:17:01.759Z,17.46
2022-08-26T04:18:01.799Z,17.39
2022-08-26T04:19:01.713Z,17.43
2022-08-26T04:20:01.760Z,17.66
2022-08-26T04:21:01.735Z,17.80
2022-08-26T04:22:01.674Z,18.05
2022-08-26T04:23:01.718Z,18.04
2022-08-26T04:24:03.492Z,18.14
2022-08-26T04:25:01.664Z,18.14
2022-08-26T04:26:01.696Z,18.19
2022-08-26T04:27:01.605Z,18.25
2022-08-26T04:28:01.637Z,18.36
2022-08-26T04:29:01.707Z,18.38
2022-08-26T04:30:01.585Z,18.36
2022-08-26T04:31:01.683Z,18.23
2022-08-26T04:32:01.646Z,18.35
2022-08-26T04:33:01.648Z,18.39
2022-08-26T04:34:01.582Z,18.35
2022-08-26T04:35:01.888Z,18.34
2022-08-26T04:36:01.544Z,18.38
2022-08-26T04:37:01.544Z,18.36
2022-08-26T04:38:01.547Z,18.35
2022-08-26T04:39:01.481Z,18.34
2022-08-26T04:40:01.569Z,18.38
2022-08-26T04:41:01.518Z,18.21
2022-08-26T04:42:01.753Z,18.11
2022-08-26T04:43:01.484Z,17.98
2022-08-26T04:44:01.447Z,17.92
2022-08-26T04:45:01.412Z,17.81
2022-08-26T04:46:01.511Z,17.63
2022-08-26T04:47:01.415Z,17.66
2022-08-26T04:48:01.971Z,17.55
2022-08-26T04:49:01.372Z,17.58
2022-08-26T04:50:01.903Z,17.45
2022-08-26T04:51:01.394Z,17.54
2022-08-26T04:52:01.360Z,17.49
2022-08-26T04:53:01.378Z,17.54
2022-08-26T04:54:01.380Z,17.54
2022-08-26T04:55:01.329Z,17.65
2022-08-26T04:56:01.322Z,17.58
2022-08-26T04:57:01.375Z,17.66
2022-08-26T04:58:01.427Z,17.77
2022-08-26T04:59:01.283Z,17.76
2022-08-26T05:00:01.250Z,17.89
2022-08-26T05:01:01.285Z,17.87
2022-08-26T05:02:01.440Z,17.98
2022-08-26T05:03:01.325Z,18.07
2022-08-26T05:04:01.312Z,18.09
2022-08-26T05:05:01.245Z,18.10
2022-08-26T05:06:01.243Z,18.19
2022-08-26T05:07:02.910Z,18.20
2022-08-26T05:08:01.188Z,18.20
2022-08-26T05:09:01.163Z,18.01
2022-08-26T05:10:01.166Z,18.01
2022-08-26T05:11:01.128Z,17.99
2022-08-26T05:12:01.140Z,18.02
2022-08-26T05:13:01.251Z,18.04
2022-08-26T05:14:02.338Z,18.01
2022-08-26T05:15:01.687Z,17.96
2022-08-26T05:16:01.462Z,17.96
2022-08-26T05:17:01.099Z,17.96
2022-08-26T05:18:01.064Z,17.99
2022-08-26T05:19:01.061Z,17.96
2022-08-26T05:20:01.044Z,17.96
2022-08-26T05:21:01.049Z,17.98
2022-08-26T05:22:01.139Z,17.96
2022-08-26T05:23:01.027Z,18.11
2022-08-26T05:24:01.046Z,18.20
2022-08-26T05:25:01.059Z,18.26
2022-08-26T05:26:01.061Z,18.39
2022-08-26T05:27:01.038Z,18.51
2022-08-26T05:28:00.963Z,18.54
2022-08-26T05:29:00.983Z,18.59
2022-08-26T05:30:01.165Z,18.53
2022-08-26T05:31:01.059Z,18.60
2022-08-26T05:32:00.971Z,18.64
2022-08-26T05:33:01.011Z,18.76
2022-08-26T05:34:03.605Z,18.69
2022-08-26T05:35:00.898Z,18.87
2022-08-26T05:36:00.939Z,19.02
2022-08-26T05:37:00.853Z,19.05
2022-08-26T05:38:00.851Z,19.02
2022-08-26T05:39:00.859Z,19.10
2022-08-26T05:40:00.883Z,19.20
2022-08-26T05:41:00.893Z,19.31
2022-08-26T05:42:00.862Z,19.35
2022-08-26T05:43:00.801Z,19.40
2022-08-26T05:44:00.799Z,19.50
2022-08-26T05:45:00.851Z,19.46
2022-08-26T05:46:00.864Z,19.53
2022-08-26T05:47:01.753Z,19.50
2022-08-26T05:48:00.796Z,19.61
2022-08-26T05:49:00.720Z,19.57
2022-08-26T05:50:00.708Z,19.65
2022-08-26T05:51:00.731Z,19.65
2022-08-26T05:52:00.710Z,19.65
2022-08-26T05:53:00.739Z,19.71
2022-08-26T05:54:00.682Z,19.75
2022-08-26T05:55:00.658Z,19.72
2022-08-26T05:56:00.816Z,19.75
2022-08-26T05:57:00.779Z,19.72
2022-08-26T05:58:02.696Z,19.78
2022-08-26T05:59:00.642Z,19.86
2022-08-26T06:00:00.648Z,19.80
2022-08-26T06:01:00.670Z,19.85
2022-08-26T06:02:00.658Z,20.00
2022-08-26T06:03:00.649Z,20.02
2022-08-26T06:04:01.798Z,20.10
2022-08-26T06:05:00.553Z,20.19
2022-08-26T06:06:00.604Z,20.25
2022-08-26T06:07:00.569Z,20.41
2022-08-26T06:08:00.579Z,20.40
2022-08-26T06:09:00.555Z,20.53
2022-08-26T06:10:21.610Z,20.61
2022-08-26T06:11:01.552Z,20.63
2022-08-26T06:12:00.506Z,20.66
2022-08-26T06:13:06.166Z,20.71
2022-08-26T06:14:03.820Z,20.66
2022-08-26T06:15:00.456Z,20.78
2022-08-26T06:16:00.549Z,20.73
2022-08-26T06:17:00.595Z,20.76
2022-08-26T06:18:00.436Z,20.79
2022-08-26T06:19:00.440Z,21.01
2022-08-26T06:20:00.381Z,20.93
2022-08-26T06:21:00.398Z,21.09
2022-08-26T06:22:00.365Z,21.13
2022-08-26T06:23:00.406Z,21.30
2022-08-26T06:24:00.389Z,21.30
2022-08-26T06:25:00.389Z,21.45
2022-08-26T06:26:00.356Z,21.67
2022-08-26T06:27:00.340Z,21.63
2022-08-26T06:28:00.357Z,21.79
2022-08-26T06:29:00.309Z,21.98
2022-08-26T06:30:00.266Z,22.19
2022-08-26T06:31:00.333Z,22.30
2022-08-26T06:32:00.275Z,22.21
2022-08-26T06:33:00.255Z,22.12
2022-08-26T06:34:00.269Z,22.12
2022-08-26T06:35:00.223Z,22.12
2022-08-26T06:36:00.232Z,22.20
2022-08-26T06:37:01.307Z,22.61
2022-08-26T06:38:00.188Z,22.70
2022-08-26T06:39:00.194Z,22.63
2022-08-26T06:40:00.311Z,22.69
2022-08-26T06:41:00.193Z,23.11
2022-08-26T06:42:00.194Z,23.72
2022-08-26T06:43:00.122Z,23.96
2022-08-26T06:44:00.127Z,24.33
2022-08-26T06:45:00.146Z,24.67
2022-08-26T06:46:00.241Z,25.01
2022-08-26T06:47:00.154Z,25.20
2022-08-26T06:48:00.160Z,25.48
2022-08-26T06:49:00.067Z,26.01
2022-08-26T06:50:00.089Z,26.35
2022-08-26T06:51:00.113Z,26.68
2022-08-26T06:52:00.272Z,27.02
2022-08-26T06:53:00.075Z,27.25
2022-08-26T06:54:00.110Z,27.68
2022-08-26T06:55:00.005Z,27.96
2022-08-26T06:56:00.073Z,27.81
2022-08-26T06:57:00.032Z,27.83
2022-08-26T06:58:00.158Z,28.05
2022-08-26T06:59:00.035Z,28.35
2022-08-26T07:00:00.052Z,28.69
2022-08-26T07:01:03.758Z,29.00
2022-08-26T07:02:01.040Z,28.74
2022-08-26T07:02:59.999Z,28.77
2022-08-26T07:03:59.999Z,28.64
2022-08-26T07:05:00.088Z,28.35
2022-08-26T07:06:00.084Z,27.93
2022-08-26T07:06:59.948Z,28.15
2022-08-26T07:08:00.140Z,28.51
2022-08-26T07:08:59.926Z,28.77
2022-08-26T07:09:59.849Z,28.65
2022-08-26T07:10:59.881Z,28.79
2022-08-26T07:11:59.808Z,28.79
2022-08-26T07:12:59.809Z,28.61
2022-08-26T07:13:59.790Z,28.64
2022-08-26T07:14:59.872Z,28.72
2022-08-26T07:16:03.119Z,28.72
2022-08-26T07:16:59.757Z,28.73
2022-08-26T07:17:59.773Z,28.88
2022-08-26T07:18:59.793Z,29.10
2022-08-26T07:19:59.768Z,29.42
2022-08-26T07:20:59.762Z,29.49
2022-08-26T07:21:59.759Z,29.81
2022-08-26T07:22:59.683Z,29.95
2022-08-26T07:24:01.428Z,30.03
2022-08-26T07:24:59.722Z,30.01
2022-08-26T07:25:59.718Z,30.04
2022-08-26T07:26:59.645Z,30.01
2022-08-26T07:27:59.706Z,29.78
2022-08-26T07:28:59.673Z,29.81
2022-08-26T07:29:59.625Z,29.94
2022-08-26T07:30:59.734Z,30.19
2022-08-26T07:31:59.614Z,30.10
2022-08-26T07:32:59.586Z,29.92
2022-08-26T07:33:59.585Z,29.71
2022-08-26T07:34:59.574Z,29.69
2022-08-26T07:35:59.622Z,29.69
2022-08-26T07:36:59.577Z,29.82
2022-08-26T07:37:59.535Z,29.84
2022-08-26T07:38:59.590Z,29.99
2022-08-26T07:39:59.585Z,30.08
2022-08-26T07:40:59.583Z,30.36
2022-08-26T07:41:59.568Z,30.32
2022-08-26T07:42:59.467Z,30.46
2022-08-26T07:43:59.457Z,30.66
2022-08-26T07:44:59.496Z,30.75
2022-08-26T07:45:59.539Z,30.57
2022-08-26T07:46:59.441Z,30.60
2022-08-26T07:47:59.458Z,30.78
2022-08-26T07:48:59.483Z,30.91
2022-08-26T07:49:59.531Z,31.09
2022-08-26T07:50:59.434Z,31.18
2022-08-26T07:51:59.450Z,31.23
2022-08-26T07:52:59.373Z,31.20
2022-08-26T07:53:59.731Z,30.83
2022-08-26T07:54:59.905Z,30.34
2022-08-26T07:57:21.038Z,30.75
2022-08-26T07:58:16.847Z,30.81
2022-08-26T07:59:15.600Z,30.79
2022-08-26T08:00:15.742Z,30.34
2022-08-26T08:01:15.873Z,30.25
2022-08-26T08:02:15.742Z,30.45
2022-08-26T08:03:15.671Z,30.34
2022-08-26T08:04:15.536Z,30.48
2022-08-26T08:05:15.957Z,30.64
2022-08-26T08:06:15.630Z,30.73
2022-08-26T08:07:15.514Z,31.01
2022-08-26T08:08:27.164Z,31.15
2022-08-26T08:09:16.584Z,31.15
2022-08-26T08:10:15.477Z,30.96
2022-08-26T08:11:15.511Z,30.73
2022-08-26T08:12:15.458Z,30.78
2022-08-26T08:13:15.535Z,30.79
2022-08-26T08:14:15.438Z,30.79
2022-08-26T08:15:15.457Z,30.81
2022-08-26T08:16:15.430Z,30.96
2022-08-26T08:17:15.427Z,31.09
2022-08-26T08:18:16.006Z,31.65
2022-08-26T08:19:15.389Z,32.07
2022-08-26T08:20:15.386Z,32.12
2022-08-26T08:21:21.913Z,32.14
2022-08-26T08:22:17.246Z,32.19
2022-08-26T08:23:15.479Z,31.84
2022-08-26T08:24:15.391Z,31.71
2022-08-26T08:25:15.312Z,31.34
2022-08-26T08:26:15.331Z,31.31
2022-08-26T08:27:16.465Z,31.46
2022-08-26T08:28:15.276Z,31.59
2022-08-26T08:29:15.268Z,31.57
2022-08-26T08:30:15.266Z,31.71
2022-08-26T08:31:19.089Z,31.78
2022-08-26T08:32:16.301Z,31.82
2022-08-26T08:33:16.452Z,31.69
2022-08-26T08:34:15.253Z,31.49
2022-08-26T08:35:15.208Z,31.15
2022-08-26T08:36:20.361Z,31.35
2022-08-26T08:37:16.192Z,31.52
2022-08-26T08:38:15.236Z,31.54
2022-08-26T08:39:15.164Z,31.49
2022-08-26T08:40:15.243Z,31.57
2022-08-26T08:41:16.072Z,31.42
2022-08-26T08:42:15.189Z,31.35
2022-08-26T08:43:15.265Z,31.62
2022-08-26T08:44:15.189Z,31.76
2022-08-26T08:45:15.109Z,31.84
2022-08-26T08:46:15.246Z,31.87
2022-08-26T08:47:15.106Z,32.14
2022-08-26T08:48:15.145Z,32.35
2022-08-26T08:49:15.072Z,32.40
2022-08-26T08:50:15.393Z,32.24
2022-08-26T08:51:17.012Z,32.40
2022-08-26T08:52:15.051Z,32.51
2022-08-26T08:53:15.078Z,32.80
2022-08-26T08:54:15.000Z,32.61
2022-08-26T08:55:18.113Z,32.28
2022-08-26T08:56:15.045Z,31.60
2022-08-26T08:57:14.993Z,31.00
2022-08-26T08:58:14.974Z,30.76
2022-08-26T08:59:15.159Z,30.42
2022-08-26T09:00:15.028Z,30.61
2022-08-26T09:01:15.045Z,30.66
2022-08-26T09:02:14.995Z,30.37
2022-08-26T09:03:14.933Z,30.19
2022-08-26T09:04:17.372Z,30.15
2022-08-26T09:05:15.428Z,30.10
2022-08-26T09:06:15.285Z,29.97
2022-08-26T09:07:14.970Z,30.06
2022-08-26T09:08:14.874Z,30.06
2022-08-26T09:09:14.869Z,30.18
2022-08-26T09:10:14.891Z,30.13
2022-08-26T09:11:14.853Z,30.53
2022-08-26T09:12:14.833Z,30.78
2022-08-26T09:13:16.950Z,30.81
2022-08-26T09:14:14.838Z,30.85
2022-08-26T09:15:14.828Z,30.86
2022-08-26T09:16:14.789Z,30.76
2022-08-26T09:17:14.798Z,30.76
2022-08-26T09:18:17.909Z,30.61
2022-08-26T09:19:14.810Z,30.23
2022-08-26T09:20:14.767Z,30.37
2022-08-26T09:21:14.783Z,30.45
2022-08-26T09:22:14.741Z,30.76
2022-08-26T09:23:14.705Z,30.61
2022-08-26T09:24:14.695Z,30.42
2022-08-26T09:25:14.725Z,30.25
2022-08-26T09:26:14.909Z,29.99
2022-08-26T09:27:15.290Z,30.06
2022-08-26T09:28:14.688Z,30.03
2022-08-26T09:29:14.709Z,30.36
2022-08-26T09:30:14.679Z,30.46
2022-08-26T09:31:14.846Z,30.60
2022-08-26T09:32:14.623Z,30.78
2022-08-26T09:33:14.951Z,30.76
2022-08-26T09:34:17.294Z,30.79
2022-08-26T09:35:14.748Z,30.75
2022-08-26T09:36:14.616Z,30.93
2022-08-26T09:37:14.568Z,31.01
2022-08-26T09:38:14.708Z,30.78
2022-08-26T09:39:14.558Z,30.67
2022-08-26T09:40:14.652Z,30.38
2022-08-26T09:41:14.650Z,30.30
2022-08-26T09:42:16.804Z,30.45
2022-08-26T09:43:14.494Z,30.30
2022-08-26T09:45:29.513Z,30.59
2022-08-26T09:46:29.041Z,30.54
2022-08-26T09:47:24.375Z,30.79
2022-08-26T09:48:24.386Z,30.86
2022-08-26T09:49:24.466Z,30.97
2022-08-26T09:50:28.871Z,30.96
2022-08-26T09:51:25.323Z,30.86
2022-08-26T09:52:24.641Z,30.70
2022-08-26T09:53:28.595Z,30.78
2022-08-26T09:54:25.576Z,30.81
2022-08-26T09:55:37.793Z,30.75
2022-08-26T09:56:24.503Z,30.73
2022-08-26T09:57:24.379Z,30.67
2022-08-26T09:58:24.254Z,30.72
2022-08-26T09:59:24.241Z,30.79
2022-08-26T10:00:24.201Z,30.90
2022-08-26T10:01:24.264Z,30.86
2022-08-26T10:02:24.196Z,30.94
2022-08-26T10:03:24.376Z,31.09
2022-08-26T10:04:24.237Z,31.00
2022-08-26T10:05:24.134Z,30.94
2022-08-26T10:06:24.142Z,31.12
2022-08-26T10:07:24.148Z,30.88
2022-08-26T10:08:24.103Z,30.96
2022-08-26T10:09:24.094Z,30.93
2022-08-26T10:10:24.091Z,30.90
2022-08-26T10:11:24.083Z,31.00
2022-08-26T10:12:25.037Z,30.78
2022-08-26T10:13:39.760Z,30.85
2022-08-26T10:14:24.223Z,30.98
2022-08-26T10:15:24.095Z,30.97
2022-08-26T10:16:24.470Z,30.75
2022-08-26T10:17:24.035Z,30.70
2022-08-26T10:18:24.080Z,30.86
2022-08-26T10:19:23.984Z,30.85
2022-08-26T10:20:24.989Z,30.86
2022-08-26T10:21:24.080Z,30.83
2022-08-26T10:22:23.976Z,30.79
2022-08-26T10:23:23.936Z,30.85
2022-08-26T10:24:23.929Z,30.72
2022-08-26T10:25:23.972Z,30.81
2022-08-26T10:26:23.925Z,30.81
2022-08-26T10:27:23.948Z,30.86
2022-08-26T10:28:23.886Z,31.00
2022-08-26T10:29:26.507Z,31.13
2022-08-26T10:30:24.502Z,31.22
2022-08-26T10:31:27.708Z,31.28
2022-08-26T10:32:23.930Z,31.31
2022-08-26T10:33:23.848Z,31.38
2022-08-26T10:34:23.844Z,31.42
2022-08-26T10:35:23.833Z,31.59
2022-08-26T10:36:23.922Z,31.75
2022-08-26T10:37:23.863Z,32.06
2022-08-26T10:38:26.488Z,32.25
2022-08-26T10:39:23.839Z,32.16
2022-08-26T10:40:33.867Z,32.46
2022-08-26T10:41:25.126Z,32.71
2022-08-26T10:42:23.927Z,32.69
2022-08-26T10:43:23.769Z,32.71
2022-08-26T10:44:23.713Z,32.63
2022-08-26T10:45:23.720Z,32.66
2022-08-26T10:46:23.824Z,32.65
2022-08-26T10:47:26.793Z,32.90
2022-08-26T10:48:23.852Z,32.88
2022-08-26T10:49:23.679Z,32.77
2022-08-26T10:50:23.701Z,32.68
2022-08-26T10:51:23.707Z,32.77
2022-08-26T10:52:23.646Z,32.61
2022-08-26T10:53:25.236Z,32.49
2022-08-26T10:54:23.746Z,32.47
2022-08-26T10:55:23.609Z,32.22
2022-08-26T10:56:29.064Z,32.05
2022-08-26T10:57:23.783Z,31.88
2022-08-26T10:58:45.151Z,31.92
2022-08-26T10:59:24.274Z,31.91
2022-08-26T11:00:24.743Z,31.53
2022-08-26T11:01:23.890Z,31.62
2022-08-26T11:02:25.159Z,31.64
2022-08-26T11:03:23.552Z,31.67
2022-08-26T11:04:23.606Z,31.72
2022-08-26T11:05:30.077Z,31.50
2022-08-26T11:06:25.621Z,31.59
2022-08-26T11:07:34.723Z,31.37
2022-08-26T11:08:23.520Z,31.23
2022-08-26T11:09:25.796Z,31.04
2022-08-26T11:10:24.624Z,31.15
2022-08-26T11:11:23.485Z,31.13
2022-08-26T11:12:23.459Z,30.94
2022-08-26T11:13:23.495Z,31.05
2022-08-26T11:14:31.372Z,31.10
2022-08-26T11:15:25.850Z,31.15
2022-08-26T11:16:46.132Z,31.12
2022-08-26T11:17:23.708Z,31.15
2022-08-26T11:18:23.531Z,31.16
2022-08-26T11:19:24.598Z,31.19
2022-08-26T11:20:23.785Z,31.22
2022-08-26T11:21:24.576Z,31.40
2022-08-26T11:22:24.398Z,31.47
2022-08-26T11:24:37.658Z,31.13
2022-08-26T11:25:27.733Z,31.04
2022-08-26T11:26:36.133Z,31.01
2022-08-26T11:27:24.486Z,31.19
2022-08-26T11:28:23.336Z,31.13
2022-08-26T11:29:23.290Z,31.20
2022-08-26T11:30:24.140Z,31.30
2022-08-26T11:31:23.323Z,31.57
2022-08-26T11:32:23.526Z,31.37
2022-08-26T11:34:39.963Z,31.65
2022-08-26T11:35:45.078Z,31.52
2022-08-26T11:37:57.731Z,31.53
2022-08-26T11:38:55.959Z,31.38
2022-08-26T11:39:57.131Z,31.57
2022-08-26T11:40:55.985Z,31.52
2022-08-26T11:41:55.817Z,31.68
2022-08-26T11:42:55.772Z,31.67
2022-08-26T11:43:55.778Z,31.71
2022-08-26T11:44:57.956Z,31.60
2022-08-26T11:45:55.899Z,31.85
2022-08-26T11:46:55.986Z,31.87
2022-08-26T11:47:55.719Z,31.78
2022-08-26T11:48:55.703Z,31.34
2022-08-26T11:49:55.711Z,31.25
2022-08-26T11:50:55.697Z,31.28
2022-08-26T11:51:55.838Z,31.23
2022-08-26T11:52:55.687Z,31.30
2022-08-26T11:53:55.677Z,31.40
2022-08-26T11:54:55.676Z,31.60
2022-08-26T11:55:55.730Z,31.57
2022-08-26T11:56:55.694Z,31.45
2022-08-26T11:57:55.599Z,31.45
2022-08-26T11:58:55.633Z,31.57
2022-08-26T11:59:55.584Z,31.62
2022-08-26T12:00:55.662Z,31.65
2022-08-26T12:01:55.609Z,31.65
2022-08-26T12:02:55.668Z,31.64
2022-08-26T12:05:11.110Z,31.28
2022-08-26T12:06:06.962Z,31.42
2022-08-26T12:07:05.625Z,31.59
2022-08-26T12:08:06.297Z,31.45
2022-08-26T12:09:06.035Z,31.57
2022-08-26T12:10:05.813Z,31.57
2022-08-26T12:11:05.580Z,31.60
2022-08-26T12:12:06.540Z,31.69
2022-08-26T12:13:05.632Z,31.84
2022-08-26T12:14:20.523Z,31.90
2022-08-26T12:15:06.642Z,32.06
2022-08-26T12:18:03.551Z,32.43
2022-08-26T12:18:47.280Z,32.27
2022-08-26T12:21:46.606Z,32.05
2022-08-26T12:22:47.940Z,31.91
2022-08-26T12:23:46.793Z,32.03
2022-08-26T12:24:46.562Z,32.07
2022-08-26T12:25:46.553Z,32.14
2022-08-26T12:26:46.511Z,31.87
2022-08-26T12:27:48.678Z,31.76
2022-08-26T12:28:49.357Z,31.87
2022-08-26T12:29:48.769Z,31.98
2022-08-26T12:30:46.447Z,32.06
2022-08-26T12:31:46.473Z,32.03
2022-08-26T12:32:50.996Z,32.14
2022-08-26T12:33:47.447Z,32.10
2022-08-26T12:34:46.572Z,32.21
2022-08-26T12:35:47.739Z,32.29
2022-08-26T12:36:46.922Z,32.36
2022-08-26T12:37:48.389Z,32.59
2022-08-26T12:38:47.785Z,32.62
2022-08-26T12:39:46.359Z,32.87
2022-08-26T12:40:46.391Z,33.02
2022-08-26T12:41:46.413Z,32.91
2022-08-26T12:42:46.402Z,32.81
2022-08-26T12:43:46.323Z,32.68
2022-08-26T12:44:53.335Z,32.73
2022-08-26T12:45:47.377Z,32.68
2022-08-26T12:46:52.378Z,32.24
2022-08-26T12:47:48.168Z,32.27
2022-08-26T12:48:46.287Z,32.21
2022-08-26T12:49:46.314Z,32.16
2022-08-26T12:50:46.251Z,32.13
2022-08-26T12:51:46.247Z,32.32
2022-08-26T12:52:46.397Z,32.47
2022-08-26T12:53:46.250Z,32.72
2022-08-26T12:54:46.267Z,32.99
2022-08-26T12:55:46.408Z,33.28
2022-08-26T12:56:47.239Z,33.68
2022-08-26T12:57:47.205Z,33.93
2022-08-26T12:58:46.256Z,33.82
2022-08-26T12:59:46.222Z,33.82
2022-08-26T13:00:46.386Z,33.74
2022-08-26T13:01:46.292Z,33.75
2022-08-26T13:02:46.144Z,33.52